Accueil
METAR-TAF:

METAR-TAF

Aéroports :

Aéroport de Paris-Beauvais

Beauvais, France

latitude: 49-28N, longitude: 002-07E, altitude: 109 m

Observation

Le bulletin a été fait il y a 22 minutes, à 16:00 UTC
Vent 12 kt de ouest
Température 16°C
Humidité 51%
Pression 1017 hPa
Visibilité 10 km ou plus
pas de nuages en-dessous de 1500 mètres et pas de cumulonimbus.

METAR: LFOB 211600Z AUTO 26012KT CAVOK 16/06 Q1017 NOSIG

Heure: 18:22 (16:22 UTC)

Prévision

Le bulletin a été fait il y a 5 heures et 22 minutes, à 11:00 UTC
Prévision valable du 21 à 12 UTC au 22 à 12 UTC
Vent 15 kt de ouest avec des rafales jusqu'à 25 kt
Visibilité 10 km ou plus
Nuages épars à une hauteur de 4000 ft
Evoluant progressivement
du 21 à 15 UTC au 21 à 18 UTC
Vent 5 kt de ouest/sud-ouest

TAF: LFOB 211100Z 2112/2212 26015G25KT 9999 SCT040 BECMG 2115/2118 24005KT

Observations et prévisions météorologiques de plus de 4000 aéroports (messages METAR et TAF).

Les stations disponibles sont représentées par des disques jaunes et rouges sur la carte.

Passer la souris dessus pour voir le nom de la station.

Cliquer dessus pour voir les observations et prévisions météorologiques.

Pour changer de carte: cliquez sur les boutons verts avec une croix noire pour zoomer, sur le bouton vert avec un tiret pour effectuer un zoom arrière, ou sur les flèches vertes pour les cartes adjacentes.


METAR-TAF: